sensor_id;sensor_type;location;lat;lon;timestamp;temperature;humidity
21425;DHT22;10873;51.132;16.848;2023-04-03T00:01:17;23.30;48.50
21425;DHT22;10873;51.132;16.848;2023-04-03T00:03:43;23.30;48.50
21425;DHT22;10873;51.132;16.848;2023-04-03T00:06:10;23.30;48.20
21425;DHT22;10873;51.132;16.848;2023-04-03T00:08:37;23.30;47.90
21425;DHT22;10873;51.132;16.848;2023-04-03T00:11:05;23.40;47.40
21425;DHT22;10873;51.132;16.848;2023-04-03T00:13:33;23.40;47.20
21425;DHT22;10873;51.132;16.848;2023-04-03T00:16:01;23.40;47.00
21425;DHT22;10873;51.132;16.848;2023-04-03T00:18:29;23.40;46.80
21425;DHT22;10873;51.132;16.848;2023-04-03T00:20:55;23.40;46.70
21425;DHT22;10873;51.132;16.848;2023-04-03T00:23:21;23.40;46.60
21425;DHT22;10873;51.132;16.848;2023-04-03T00:25:49;23.40;46.40
21425;DHT22;10873;51.132;16.848;2023-04-03T00:28:15;23.50;46.40
21425;DHT22;10873;51.132;16.848;2023-04-03T00:30:42;23.50;46.20
21425;DHT22;10873;51.132;16.848;2023-04-03T00:33:11;23.50;46.20
21425;DHT22;10873;51.132;16.848;2023-04-03T00:35:38;23.50;46.20
21425;DHT22;10873;51.132;16.848;2023-04-03T00:38:04;23.50;45.90
21425;DHT22;10873;51.132;16.848;2023-04-03T00:40:34;23.50;45.90
21425;DHT22;10873;51.132;16.848;2023-04-03T00:43:00;23.50;45.90
21425;DHT22;10873;51.132;16.848;2023-04-03T00:45:31;23.50;45.70
21425;DHT22;10873;51.132;16.848;2023-04-03T00:47:58;23.50;45.60
21425;DHT22;10873;51.132;16.848;2023-04-03T00:50:27;23.50;45.50
21425;DHT22;10873;51.132;16.848;2023-04-03T00:52:54;23.50;45.50
21425;DHT22;10873;51.132;16.848;2023-04-03T00:55:20;23.50;45.40
21425;DHT22;10873;51.132;16.848;2023-04-03T00:57:47;23.50;45.40
21425;DHT22;10873;51.132;16.848;2023-04-03T01:00:17;23.50;45.40
21425;DHT22;10873;51.132;16.848;2023-04-03T01:02:44;23.50;45.40
21425;DHT22;10873;51.132;16.848;2023-04-03T01:05:46;23.50;45.30
21425;DHT22;10873;51.132;16.848;2023-04-03T01:08:12;23.50;45.20
21425;DHT22;10873;51.132;16.848;2023-04-03T01:10:38;23.50;45.30
21425;DHT22;10873;51.132;16.848;2023-04-03T01:13:19;23.50;45.40
21425;DHT22;10873;51.132;16.848;2023-04-03T01:15:45;23.50;45.50
21425;DHT22;10873;51.132;16.848;2023-04-03T01:18:11;23.50;45.30
21425;DHT22;10873;51.132;16.848;2023-04-03T01:23:47;23.50;45.20
21425;DHT22;10873;51.132;16.848;2023-04-03T01:26:17;23.50;45.10
21425;DHT22;10873;51.132;16.848;2023-04-03T01:28:43;23.50;44.90
21425;DHT22;10873;51.132;16.848;2023-04-03T01:31:15;23.50;44.90
21425;DHT22;10873;51.132;16.848;2023-04-03T01:33:45;23.50;44.90
21425;DHT22;10873;51.132;16.848;2023-04-03T01:36:15;23.50;45.00
21425;DHT22;10873;51.132;16.848;2023-04-03T01:38:41;23.50;45.10
21425;DHT22;10873;51.132;16.848;2023-04-03T01:41:08;23.50;45.10
21425;DHT22;10873;51.132;16.848;2023-04-03T01:43:34;23.50;45.00
21425;DHT22;10873;51.132;16.848;2023-04-03T01:46:00;23.40;44.90
21425;DHT22;10873;51.132;16.848;2023-04-03T01:48:26;23.40;44.90
21425;DHT22;10873;51.132;16.848;2023-04-03T01:50:53;23.50;45.00
21425;DHT22;10873;51.132;16.848;2023-04-03T01:53:19;23.50;44.90
21425;DHT22;10873;51.132;16.848;2023-04-03T01:58:21;23.50;44.90
21425;DHT22;10873;51.132;16.848;2023-04-03T02:00:47;23.40;44.70
21425;DHT22;10873;51.132;16.848;2023-04-03T02:03:13;23.50;44.80
21425;DHT22;10873;51.132;16.848;2023-04-03T02:05:40;23.40;44.90
21425;DHT22;10873;51.132;16.848;2023-04-03T02:08:08;23.50;45.00
21425;DHT22;10873;51.132;16.848;2023-04-03T02:10:34;23.40;45.00
21425;DHT22;10873;51.132;16.848;2023-04-03T02:13:00;23.50;45.00
21425;DHT22;10873;51.132;16.848;2023-04-03T02:15:26;23.50;44.80
21425;DHT22;10873;51.132;16.848;2023-04-03T02:17:52;23.50;44.80
21425;DHT22;10873;51.132;16.848;2023-04-03T02:20:19;23.50;44.80
21425;DHT22;10873;51.132;16.848;2023-04-03T02:22:45;23.50;44.80
21425;DHT22;10873;51.132;16.848;2023-04-03T02:25:13;23.50;44.80
21425;DHT22;10873;51.132;16.848;2023-04-03T02:27:39;23.50;44.80
21425;DHT22;10873;51.132;16.848;2023-04-03T02:30:06;23.50;44.80
21425;DHT22;10873;51.132;16.848;2023-04-03T02:32:32;23.50;44.80
21425;DHT22;10873;51.132;16.848;2023-04-03T02:34:59;23.50;44.80
21425;DHT22;10873;51.132;16.848;2023-04-03T02:37:24;23.50;44.80
21425;DHT22;10873;51.132;16.848;2023-04-03T02:39:51;23.50;44.80
21425;DHT22;10873;51.132;16.848;2023-04-03T02:42:18;23.50;44.60
21425;DHT22;10873;51.132;16.848;2023-04-03T02:44:45;23.50;44.50
21425;DHT22;10873;51.132;16.848;2023-04-03T02:47:11;23.50;44.50
21425;DHT22;10873;51.132;16.848;2023-04-03T02:49:37;23.50;44.50
21425;DHT22;10873;51.132;16.848;2023-04-03T02:52:04;23.50;44.50
21425;DHT22;10873;51.132;16.848;2023-04-03T02:54:30;23.50;44.60
21425;DHT22;10873;51.132;16.848;2023-04-03T02:56:56;23.50;44.70
21425;DHT22;10873;51.132;16.848;2023-04-03T02:59:24;23.50;44.70
21425;DHT22;10873;51.132;16.848;2023-04-03T03:01:50;23.50;44.70
21425;DHT22;10873;51.132;16.848;2023-04-03T03:04:16;23.50;44.70
21425;DHT22;10873;51.132;16.848;2023-04-03T03:06:42;23.50;44.60
21425;DHT22;10873;51.132;16.848;2023-04-03T03:09:08;23.60;45.20
21425;DHT22;10873;51.132;16.848;2023-04-03T03:11:34;23.60;44.50
21425;DHT22;10873;51.132;16.848;2023-04-03T03:14:01;23.60;44.50
21425;DHT22;10873;51.132;16.848;2023-04-03T03:16:28;23.60;44.50
21425;DHT22;10873;51.132;16.848;2023-04-03T03:18:54;23.50;44.40
21425;DHT22;10873;51.132;16.848;2023-04-03T03:21:20;23.50;44.40
21425;DHT22;10873;51.132;16.848;2023-04-03T03:23:46;23.50;44.50
21425;DHT22;10873;51.132;16.848;2023-04-03T03:26:12;23.60;44.50
21425;DHT22;10873;51.132;16.848;2023-04-03T03:28:39;23.60;44.50
21425;DHT22;10873;51.132;16.848;2023-04-03T03:31:06;23.60;44.50
21425;DHT22;10873;51.132;16.848;2023-04-03T03:33:34;23.60;44.40
21425;DHT22;10873;51.132;16.848;2023-04-03T03:36:00;23.60;44.30
21425;DHT22;10873;51.132;16.848;2023-04-03T03:38:27;23.60;44.40
21425;DHT22;10873;51.132;16.848;2023-04-03T03:40:52;23.60;44.40
21425;DHT22;10873;51.132;16.848;2023-04-03T03:43:19;23.60;44.30
21425;DHT22;10873;51.132;16.848;2023-04-03T03:45:49;23.60;44.30
21425;DHT22;10873;51.132;16.848;2023-04-03T03:48:16;23.60;44.30
21425;DHT22;10873;51.132;16.848;2023-04-03T03:50:43;23.60;44.40
21425;DHT22;10873;51.132;16.848;2023-04-03T03:53:09;23.60;44.50
21425;DHT22;10873;51.132;16.848;2023-04-03T03:55:36;23.60;44.40
21425;DHT22;10873;51.132;16.848;2023-04-03T03:58:02;23.60;44.50
21425;DHT22;10873;51.132;16.848;2023-04-03T04:00:29;23.60;44.40
21425;DHT22;10873;51.132;16.848;2023-04-03T04:02:58;23.60;44.30
21425;DHT22;10873;51.132;16.848;2023-04-03T04:05:25;23.60;44.30
21425;DHT22;10873;51.132;16.848;2023-04-03T04:07:53;23.60;44.30
21425;DHT22;10873;51.132;16.848;2023-04-03T04:10:19;23.60;44.30
21425;DHT22;10873;51.132;16.848;2023-04-03T04:12:45;23.60;44.30
21425;DHT22;10873;51.132;16.848;2023-04-03T04:15:11;23.60;44.10
21425;DHT22;10873;51.132;16.848;2023-04-03T04:17:38;23.60;44.10
21425;DHT22;10873;51.132;16.848;2023-04-03T04:20:04;23.60;44.20
21425;DHT22;10873;51.132;16.848;2023-04-03T04:22:31;23.60;44.30
21425;DHT22;10873;51.132;16.848;2023-04-03T04:24:58;23.60;44.30
21425;DHT22;10873;51.132;16.848;2023-04-03T04:27:24;23.60;44.30
21425;DHT22;10873;51.132;16.848;2023-04-03T04:29:50;23.60;44.40
21425;DHT22;10873;51.132;16.848;2023-04-03T04:32:16;23.60;44.40
21425;DHT22;10873;51.132;16.848;2023-04-03T04:34:42;23.60;44.40
21425;DHT22;10873;51.132;16.848;2023-04-03T04:37:09;23.60;44.50
21425;DHT22;10873;51.132;16.848;2023-04-03T04:39:34;23.60;44.70
21425;DHT22;10873;51.132;16.848;2023-04-03T04:42:03;23.50;44.70
21425;DHT22;10873;51.132;16.848;2023-04-03T04:44:29;23.50;44.60
21425;DHT22;10873;51.132;16.848;2023-04-03T04:46:55;23.50;44.60
21425;DHT22;10873;51.132;16.848;2023-04-03T04:49:21;23.50;44.80
21425;DHT22;10873;51.132;16.848;2023-04-03T04:51:48;23.50;44.70
21425;DHT22;10873;51.132;16.848;2023-04-03T04:54:13;23.60;44.70
21425;DHT22;10873;51.132;16.848;2023-04-03T04:56:41;23.60;44.80
21425;DHT22;10873;51.132;16.848;2023-04-03T04:59:08;23.60;44.90
21425;DHT22;10873;51.132;16.848;2023-04-03T05:01:34;23.60;44.90
21425;DHT22;10873;51.132;16.848;2023-04-03T05:04:01;23.60;45.00
21425;DHT22;10873;51.132;16.848;2023-04-03T05:06:27;23.60;45.00
21425;DHT22;10873;51.132;16.848;2023-04-03T05:08:55;23.60;45.00
21425;DHT22;10873;51.132;16.848;2023-04-03T05:11:22;23.60;45.10
21425;DHT22;10873;51.132;16.848;2023-04-03T05:13:48;23.60;45.10
21425;DHT22;10873;51.132;16.848;2023-04-03T05:16:15;23.60;45.10
21425;DHT22;10873;51.132;16.848;2023-04-03T05:18:41;23.60;45.20
21425;DHT22;10873;51.132;16.848;2023-04-03T05:21:08;23.60;45.30
21425;DHT22;10873;51.132;16.848;2023-04-03T05:23:33;23.60;45.30
21425;DHT22;10873;51.132;16.848;2023-04-03T05:26:00;23.60;45.30
21425;DHT22;10873;51.132;16.848;2023-04-03T05:28:26;23.60;45.30
21425;DHT22;10873;51.132;16.848;2023-04-03T05:30:53;23.60;45.30
21425;DHT22;10873;51.132;16.848;2023-04-03T05:33:22;23.60;45.20
21425;DHT22;10873;51.132;16.848;2023-04-03T05:35:49;23.60;45.10
21425;DHT22;10873;51.132;16.848;2023-04-03T05:38:15;23.60;45.00
21425;DHT22;10873;51.132;16.848;2023-04-03T05:40:41;23.60;45.00
21425;DHT22;10873;51.132;16.848;2023-04-03T05:43:07;23.60;45.00
21425;DHT22;10873;51.132;16.848;2023-04-03T05:45:33;23.60;45.00
21425;DHT22;10873;51.132;16.848;2023-04-03T05:47:59;23.60;45.00
21425;DHT22;10873;51.132;16.848;2023-04-03T05:50:27;23.60;45.10
21425;DHT22;10873;51.132;16.848;2023-04-03T05:52:56;23.60;45.10
21425;DHT22;10873;51.132;16.848;2023-04-03T05:55:22;23.60;45.10
21425;DHT22;10873;51.132;16.848;2023-04-03T05:57:48;23.60;45.20
21425;DHT22;10873;51.132;16.848;2023-04-03T06:00:16;23.60;45.20
21425;DHT22;10873;51.132;16.848;2023-04-03T06:02:42;23.60;45.10
21425;DHT22;10873;51.132;16.848;2023-04-03T06:05:09;23.70;45.20
21425;DHT22;10873;51.132;16.848;2023-04-03T06:07:38;23.70;45.20
21425;DHT22;10873;51.132;16.848;2023-04-03T06:10:06;23.70;45.20
21425;DHT22;10873;51.132;16.848;2023-04-03T06:12:32;23.70;45.30
21425;DHT22;10873;51.132;16.848;2023-04-03T06:14:59;23.70;45.30
21425;DHT22;10873;51.132;16.848;2023-04-03T06:17:25;23.70;45.30
21425;DHT22;10873;51.132;16.848;2023-04-03T06:19:52;23.70;45.30
21425;DHT22;10873;51.132;16.848;2023-04-03T06:22:18;23.70;45.40
21425;DHT22;10873;51.132;16.848;2023-04-03T06:24:47;23.70;45.50
21425;DHT22;10873;51.132;16.848;2023-04-03T06:27:12;23.70;45.50
21425;DHT22;10873;51.132;16.848;2023-04-03T06:29:39;23.70;45.50
21425;DHT22;10873;51.132;16.848;2023-04-03T06:32:05;23.70;45.50
21425;DHT22;10873;51.132;16.848;2023-04-03T06:34:32;23.70;45.50
21425;DHT22;10873;51.132;16.848;2023-04-03T06:36:58;23.70;45.50
21425;DHT22;10873;51.132;16.848;2023-04-03T06:39:24;23.80;45.40
21425;DHT22;10873;51.132;16.848;2023-04-03T06:41:51;23.80;45.20
21425;DHT22;10873;51.132;16.848;2023-04-03T06:44:18;23.80;45.30
21425;DHT22;10873;51.132;16.848;2023-04-03T06:46:44;23.80;45.40
21425;DHT22;10873;51.132;16.848;2023-04-03T06:49:12;23.80;45.40
21425;DHT22;10873;51.132;16.848;2023-04-03T06:51:38;23.80;45.30
21425;DHT22;10873;51.132;16.848;2023-04-03T06:54:06;23.90;45.40
21425;DHT22;10873;51.132;16.848;2023-04-03T06:56:32;23.90;45.30
21425;DHT22;10873;51.132;16.848;2023-04-03T06:59:00;23.90;45.20
21425;DHT22;10873;51.132;16.848;2023-04-03T07:01:27;23.90;45.10
21425;DHT22;10873;51.132;16.848;2023-04-03T07:03:55;23.90;45.10
21425;DHT22;10873;51.132;16.848;2023-04-03T07:06:21;23.90;45.00
21425;DHT22;10873;51.132;16.848;2023-04-03T07:08:47;23.90;45.00
21425;DHT22;10873;51.132;16.848;2023-04-03T07:11:17;23.90;45.00
21425;DHT22;10873;51.132;16.848;2023-04-03T07:13:43;23.90;45.00
21425;DHT22;10873;51.132;16.848;2023-04-03T07:16:10;23.90;45.00
21425;DHT22;10873;51.132;16.848;2023-04-03T07:18:36;23.90;45.00
21425;DHT22;10873;51.132;16.848;2023-04-03T07:21:03;23.90;45.00
21425;DHT22;10873;51.132;16.848;2023-04-03T07:23:29;23.90;45.00
21425;DHT22;10873;51.132;16.848;2023-04-03T07:25:55;23.90;44.90
21425;DHT22;10873;51.132;16.848;2023-04-03T07:28:22;23.80;44.70
21425;DHT22;10873;51.132;16.848;2023-04-03T07:30:49;23.90;44.80
21425;DHT22;10873;51.132;16.848;2023-04-03T07:33:19;23.90;44.70
21425;DHT22;10873;51.132;16.848;2023-04-03T07:35:45;23.90;44.80
21425;DHT22;10873;51.132;16.848;2023-04-03T07:38:12;23.90;44.80
21425;DHT22;10873;51.132;16.848;2023-04-03T07:40:38;23.80;44.60
21425;DHT22;10873;51.132;16.848;2023-04-03T07:43:06;23.90;44.50
21425;DHT22;10873;51.132;16.848;2023-04-03T07:45:33;23.80;44.50
21425;DHT22;10873;51.132;16.848;2023-04-03T07:48:00;23.90;44.50
21425;DHT22;10873;51.132;16.848;2023-04-03T07:50:27;23.90;44.50
21425;DHT22;10873;51.132;16.848;2023-04-03T07:52:54;23.90;44.50
21425;DHT22;10873;51.132;16.848;2023-04-03T07:55:21;23.80;44.50
21425;DHT22;10873;51.132;16.848;2023-04-03T07:57:48;23.80;44.50
21425;DHT22;10873;51.132;16.848;2023-04-03T08:00:14;23.90;44.50
21425;DHT22;10873;51.132;16.848;2023-04-03T08:02:43;23.90;44.50
21425;DHT22;10873;51.132;16.848;2023-04-03T08:05:10;23.90;44.50
21425;DHT22;10873;51.132;16.848;2023-04-03T08:07:38;23.90;44.30
21425;DHT22;10873;51.132;16.848;2023-04-03T08:10:05;23.90;44.30
21425;DHT22;10873;51.132;16.848;2023-04-03T08:12:31;23.90;44.20
21425;DHT22;10873;51.132;16.848;2023-04-03T08:14:59;24.00;44.20
21425;DHT22;10873;51.132;16.848;2023-04-03T08:17:27;23.90;44.10
21425;DHT22;10873;51.132;16.848;2023-04-03T08:19:53;24.00;44.00
21425;DHT22;10873;51.132;16.848;2023-04-03T08:22:19;24.00;43.90
21425;DHT22;10873;51.132;16.848;2023-04-03T08:24:47;24.00;44.60
21425;DHT22;10873;51.132;16.848;2023-04-03T08:27:13;24.00;43.80
21425;DHT22;10873;51.132;16.848;2023-04-03T08:29:39;24.00;43.70
21425;DHT22;10873;51.132;16.848;2023-04-03T08:32:05;24.00;43.60
21425;DHT22;10873;51.132;16.848;2023-04-03T08:34:32;24.00;43.40
21425;DHT22;10873;51.132;16.848;2023-04-03T08:37:00;24.00;43.40
21425;DHT22;10873;51.132;16.848;2023-04-03T08:39:26;24.00;43.40
21425;DHT22;10873;51.132;16.848;2023-04-03T08:41:55;24.00;43.40
21425;DHT22;10873;51.132;16.848;2023-04-03T08:44:25;23.90;43.40
21425;DHT22;10873;51.132;16.848;2023-04-03T08:47:11;23.90;43.40
21425;DHT22;10873;51.132;16.848;2023-04-03T08:49:40;24.00;43.40
21425;DHT22;10873;51.132;16.848;2023-04-03T08:52:15;24.00;43.40
21425;DHT22;10873;51.132;16.848;2023-04-03T08:54:50;24.00;43.30
21425;DHT22;10873;51.132;16.848;2023-04-03T08:57:25;24.00;43.20
21425;DHT22;10873;51.132;16.848;2023-04-03T08:59:52;24.00;43.20
21425;DHT22;10873;51.132;16.848;2023-04-03T09:02:24;24.00;43.20
21425;DHT22;10873;51.132;16.848;2023-04-03T09:04:52;24.00;43.10
21425;DHT22;10873;51.132;16.848;2023-04-03T09:07:23;24.10;43.00
21425;DHT22;10873;51.132;16.848;2023-04-03T09:09:51;24.10;42.90
21425;DHT22;10873;51.132;16.848;2023-04-03T09:12:23;24.10;42.80
21425;DHT22;10873;51.132;16.848;2023-04-03T09:14:57;24.10;42.70
21425;DHT22;10873;51.132;16.848;2023-04-03T09:17:37;24.10;42.70
21425;DHT22;10873;51.132;16.848;2023-04-03T09:20:14;24.10;42.70
21425;DHT22;10873;51.132;16.848;2023-04-03T09:22:44;24.10;42.60
21425;DHT22;10873;51.132;16.848;2023-04-03T09:25:13;24.10;42.60
21425;DHT22;10873;51.132;16.848;2023-04-03T09:27:41;24.10;42.40
21425;DHT22;10873;51.132;16.848;2023-04-03T09:30:13;24.10;42.30
21425;DHT22;10873;51.132;16.848;2023-04-03T09:32:39;24.10;42.30
21425;DHT22;10873;51.132;16.848;2023-04-03T09:35:17;24.10;42.30
21425;DHT22;10873;51.132;16.848;2023-04-03T09:37:47;24.10;42.20
21425;DHT22;10873;51.132;16.848;2023-04-03T09:40:34;24.10;42.10
21425;DHT22;10873;51.132;16.848;2023-04-03T09:43:18;24.10;41.90
21425;DHT22;10873;51.132;16.848;2023-04-03T09:45:47;24.10;41.90
21425;DHT22;10873;51.132;16.848;2023-04-03T09:48:17;24.10;41.90
21425;DHT22;10873;51.132;16.848;2023-04-03T09:50:55;24.10;41.90
21425;DHT22;10873;51.132;16.848;2023-04-03T09:53:33;24.10;41.90
21425;DHT22;10873;51.132;16.848;2023-04-03T09:56:02;24.10;41.80
21425;DHT22;10873;51.132;16.848;2023-04-03T09:58:32;24.10;41.70
21425;DHT22;10873;51.132;16.848;2023-04-03T10:01:00;24.10;41.70
21425;DHT22;10873;51.132;16.848;2023-04-03T10:03:29;24.00;42.30
21425;DHT22;10873;51.132;16.848;2023-04-03T10:05:57;24.10;41.70
21425;DHT22;10873;51.132;16.848;2023-04-03T10:08:27;24.10;41.40
21425;DHT22;10873;51.132;16.848;2023-04-03T10:11:11;24.00;41.30
21425;DHT22;10873;51.132;16.848;2023-04-03T10:13:51;24.10;41.30
21425;DHT22;10873;51.132;16.848;2023-04-03T10:16:18;24.10;41.20
21425;DHT22;10873;51.132;16.848;2023-04-03T10:18:51;24.00;41.20
21425;DHT22;10873;51.132;16.848;2023-04-03T10:21:29;24.10;41.40
21425;DHT22;10873;51.132;16.848;2023-04-03T10:24:07;24.10;41.50
21425;DHT22;10873;51.132;16.848;2023-04-03T10:26:40;24.00;41.40
21425;DHT22;10873;51.132;16.848;2023-04-03T10:29:20;24.00;41.40
21425;DHT22;10873;51.132;16.848;2023-04-03T10:31:53;24.10;41.30
21425;DHT22;10873;51.132;16.848;2023-04-03T10:34:25;24.00;41.30
21425;DHT22;10873;51.132;16.848;2023-04-03T10:36:58;24.00;41.30
21425;DHT22;10873;51.132;16.848;2023-04-03T10:39:32;24.00;41.20
21425;DHT22;10873;51.132;16.848;2023-04-03T10:42:04;24.00;41.20
21425;DHT22;10873;51.132;16.848;2023-04-03T10:44:41;24.00;41.20
21425;DHT22;10873;51.132;16.848;2023-04-03T10:47:12;24.00;41.00
21425;DHT22;10873;51.132;16.848;2023-04-03T10:49:53;24.00;40.90
21425;DHT22;10873;51.132;16.848;2023-04-03T10:52:24;24.00;40.90
21425;DHT22;10873;51.132;16.848;2023-04-03T10:55:01;24.00;40.90
21425;DHT22;10873;51.132;16.848;2023-04-03T10:57:28;24.00;40.90
21425;DHT22;10873;51.132;16.848;2023-04-03T10:59:59;24.00;40.90
21425;DHT22;10873;51.132;16.848;2023-04-03T11:02:29;24.00;41.00
21425;DHT22;10873;51.132;16.848;2023-04-03T11:05:00;24.00;41.10
21425;DHT22;10873;51.132;16.848;2023-04-03T11:07:29;24.00;41.00
21425;DHT22;10873;51.132;16.848;2023-04-03T11:10:00;24.10;41.00
21425;DHT22;10873;51.132;16.848;2023-04-03T11:12:33;24.10;41.00
21425;DHT22;10873;51.132;16.848;2023-04-03T11:15:05;24.10;41.00
21425;DHT22;10873;51.132;16.848;2023-04-03T11:17:35;24.10;40.80
21425;DHT22;10873;51.132;16.848;2023-04-03T11:20:08;24.10;40.90
21425;DHT22;10873;51.132;16.848;2023-04-03T11:22:39;24.20;40.90
21425;DHT22;10873;51.132;16.848;2023-04-03T11:25:15;24.20;40.90
21425;DHT22;10873;51.132;16.848;2023-04-03T11:27:48;24.20;40.90
21425;DHT22;10873;51.132;16.848;2023-04-03T11:30:21;24.20;40.80
21425;DHT22;10873;51.132;16.848;2023-04-03T11:33:13;24.20;40.70
21425;DHT22;10873;51.132;16.848;2023-04-03T11:35:44;24.20;40.70
21425;DHT22;10873;51.132;16.848;2023-04-03T11:38:18;24.20;40.60
21425;DHT22;10873;51.132;16.848;2023-04-03T11:40:46;24.20;40.70
21425;DHT22;10873;51.132;16.848;2023-04-03T11:43:21;24.20;40.70
21425;DHT22;10873;51.132;16.848;2023-04-03T11:45:56;24.20;40.70
21425;DHT22;10873;51.132;16.848;2023-04-03T11:48:50;24.30;40.70
21425;DHT22;10873;51.132;16.848;2023-04-03T11:51:42;24.30;40.60
21425;DHT22;10873;51.132;16.848;2023-04-03T11:54:44;24.30;40.60
21425;DHT22;10873;51.132;16.848;2023-04-03T11:57:43;24.30;40.60
21425;DHT22;10873;51.132;16.848;2023-04-03T12:00:48;24.20;40.50
21425;DHT22;10873;51.132;16.848;2023-04-03T12:09:32;24.30;40.70
21425;DHT22;10873;51.132;16.848;2023-04-03T12:12:01;24.20;40.60
21425;DHT22;10873;51.132;16.848;2023-04-03T12:14:46;24.30;40.50
21425;DHT22;10873;51.132;16.848;2023-04-03T12:17:22;24.20;40.60
21425;DHT22;10873;51.132;16.848;2023-04-03T12:19:49;24.20;40.60
21425;DHT22;10873;51.132;16.848;2023-04-03T12:22:17;24.20;40.60
21425;DHT22;10873;51.132;16.848;2023-04-03T12:24:48;24.20;40.50
21425;DHT22;10873;51.132;16.848;2023-04-03T12:27:25;24.20;40.30
21425;DHT22;10873;51.132;16.848;2023-04-03T12:30:10;24.20;40.30
21425;DHT22;10873;51.132;16.848;2023-04-03T12:32:51;24.20;40.50
21425;DHT22;10873;51.132;16.848;2023-04-03T12:35:26;24.20;40.60
21425;DHT22;10873;51.132;16.848;2023-04-03T12:41:18;24.20;40.40
21425;DHT22;10873;51.132;16.848;2023-04-03T12:43:59;24.20;40.40
21425;DHT22;10873;51.132;16.848;2023-04-03T12:46:35;24.20;40.50
21425;DHT22;10873;51.132;16.848;2023-04-03T12:49:14;24.20;40.60
21425;DHT22;10873;51.132;16.848;2023-04-03T12:51:46;24.20;40.60
21425;DHT22;10873;51.132;16.848;2023-04-03T12:54:15;24.20;41.20
21425;DHT22;10873;51.132;16.848;2023-04-03T12:56:42;24.20;41.00
21425;DHT22;10873;51.132;16.848;2023-04-03T12:59:16;24.20;40.80
21425;DHT22;10873;51.132;16.848;2023-04-03T13:01:43;24.10;39.60
21425;DHT22;10873;51.132;16.848;2023-04-03T13:04:11;24.10;38.70
21425;DHT22;10873;51.132;16.848;2023-04-03T13:06:39;24.10;38.00
21425;DHT22;10873;51.132;16.848;2023-04-03T13:09:19;24.00;37.40
21425;DHT22;10873;51.132;16.848;2023-04-03T13:11:48;24.00;36.80
21425;DHT22;10873;51.132;16.848;2023-04-03T13:14:18;24.00;36.70
21425;DHT22;10873;51.132;16.848;2023-04-03T13:16:53;23.90;36.20
21425;DHT22;10873;51.132;16.848;2023-04-03T13:19:19;23.90;35.90
21425;DHT22;10873;51.132;16.848;2023-04-03T13:21:45;23.90;35.50
21425;DHT22;10873;51.132;16.848;2023-04-03T13:24:13;23.90;35.10
21425;DHT22;10873;51.132;16.848;2023-04-03T13:26:40;23.80;34.40
21425;DHT22;10873;51.132;16.848;2023-04-03T13:29:14;23.70;34.30
21425;DHT22;10873;51.132;16.848;2023-04-03T13:31:43;23.70;34.10
21425;DHT22;10873;51.132;16.848;2023-04-03T13:34:12;23.70;33.90
21425;DHT22;10873;51.132;16.848;2023-04-03T13:36:40;23.60;33.50
21425;DHT22;10873;51.132;16.848;2023-04-03T13:39:22;23.60;33.40
21425;DHT22;10873;51.132;16.848;2023-04-03T13:41:50;23.50;33.30
21425;DHT22;10873;51.132;16.848;2023-04-03T13:44:23;23.50;33.30
21425;DHT22;10873;51.132;16.848;2023-04-03T13:46:51;23.40;33.30
21425;DHT22;10873;51.132;16.848;2023-04-03T13:49:20;23.40;33.40
21425;DHT22;10873;51.132;16.848;2023-04-03T13:51:47;23.30;33.00
21425;DHT22;10873;51.132;16.848;2023-04-03T13:54:18;23.30;32.90
21425;DHT22;10873;51.132;16.848;2023-04-03T13:56:46;23.20;32.80
21425;DHT22;10873;51.132;16.848;2023-04-03T13:59:24;23.20;33.00
21425;DHT22;10873;51.132;16.848;2023-04-03T14:01:53;23.20;33.20
21425;DHT22;10873;51.132;16.848;2023-04-03T14:04:21;23.10;34.00
21425;DHT22;10873;51.132;16.848;2023-04-03T14:06:48;23.10;33.50
21425;DHT22;10873;51.132;16.848;2023-04-03T14:09:14;23.10;33.70
21425;DHT22;10873;51.132;16.848;2023-04-03T14:11:41;23.10;33.70
21425;DHT22;10873;51.132;16.848;2023-04-03T14:14:13;23.10;33.70
21425;DHT22;10873;51.132;16.848;2023-04-03T14:16:43;23.10;33.60
21425;DHT22;10873;51.132;16.848;2023-04-03T14:19:18;23.10;33.70
21425;DHT22;10873;51.132;16.848;2023-04-03T14:21:44;23.10;33.80
21425;DHT22;10873;51.132;16.848;2023-04-03T14:24:10;23.10;33.70
21425;DHT22;10873;51.132;16.848;2023-04-03T14:26:37;23.10;33.40
21425;DHT22;10873;51.132;16.848;2023-04-03T14:29:03;23.10;33.20
21425;DHT22;10873;51.132;16.848;2023-04-03T14:31:31;23.00;33.20
21425;DHT22;10873;51.132;16.848;2023-04-03T14:33:57;23.00;33.20
21425;DHT22;10873;51.132;16.848;2023-04-03T14:36:25;23.00;33.20
21425;DHT22;10873;51.132;16.848;2023-04-03T14:38:52;23.00;33.30
21425;DHT22;10873;51.132;16.848;2023-04-03T14:41:21;23.10;33.40
21425;DHT22;10873;51.132;16.848;2023-04-03T14:43:48;23.10;33.40
21425;DHT22;10873;51.132;16.848;2023-04-03T14:46:16;23.10;33.20
21425;DHT22;10873;51.132;16.848;2023-04-03T14:48:45;23.10;33.20
21425;DHT22;10873;51.132;16.848;2023-04-03T14:51:13;23.10;33.40
21425;DHT22;10873;51.132;16.848;2023-04-03T14:53:39;23.10;33.40
21425;DHT22;10873;51.132;16.848;2023-04-03T14:56:11;23.10;33.50
21425;DHT22;10873;51.132;16.848;2023-04-03T14:58:38;23.10;33.40
21425;DHT22;10873;51.132;16.848;2023-04-03T15:01:04;23.00;33.30
21425;DHT22;10873;51.132;16.848;2023-04-03T15:03:30;23.10;33.40
21425;DHT22;10873;51.132;16.848;2023-04-03T15:05:57;23.00;33.40
21425;DHT22;10873;51.132;16.848;2023-04-03T15:08:26;23.00;33.30
21425;DHT22;10873;51.132;16.848;2023-04-03T15:10:56;23.00;33.10
21425;DHT22;10873;51.132;16.848;2023-04-03T15:13:22;23.00;33.10
21425;DHT22;10873;51.132;16.848;2023-04-03T15:15:49;23.00;33.20
21425;DHT22;10873;51.132;16.848;2023-04-03T15:18:18;23.00;33.20
21425;DHT22;10873;51.132;16.848;2023-04-03T15:20:44;23.00;33.20
21425;DHT22;10873;51.132;16.848;2023-04-03T15:23:13;23.00;33.10
21425;DHT22;10873;51.132;16.848;2023-04-03T15:25:41;23.00;33.10
21425;DHT22;10873;51.132;16.848;2023-04-03T15:28:09;23.00;33.20
21425;DHT22;10873;51.132;16.848;2023-04-03T15:30:39;23.00;33.10
21425;DHT22;10873;51.132;16.848;2023-04-03T15:33:06;23.00;33.10
21425;DHT22;10873;51.132;16.848;2023-04-03T15:35:32;23.00;33.20
21425;DHT22;10873;51.132;16.848;2023-04-03T15:37:58;23.00;33.20
21425;DHT22;10873;51.132;16.848;2023-04-03T15:40:26;23.00;33.30
21425;DHT22;10873;51.132;16.848;2023-04-03T15:42:52;22.90;33.20